createdAt,value
2022-08-06T00:00:26.962Z,1.08
2022-08-06T00:02:54.857Z,0.90
2022-08-06T00:05:29.813Z,0.80
2022-08-06T00:08:02.100Z,1.23
2022-08-06T00:10:30.705Z,0.70
2022-08-06T00:13:04.674Z,0.80
2022-08-06T00:16:06.865Z,0.70
2022-08-06T00:18:21.460Z,0.85
2022-08-06T00:20:51.583Z,0.90
2022-08-06T00:23:24.382Z,1.17
2022-08-06T00:25:54.626Z,0.98
2022-08-06T00:28:31.436Z,0.90
2022-08-06T00:31:05.985Z,0.98
2022-08-06T00:33:44.158Z,0.68
2022-08-06T00:36:25.002Z,0.95
2022-08-06T00:38:53.423Z,1.00
2022-08-06T00:41:22.795Z,0.88
2022-08-06T00:43:54.540Z,0.80
2022-08-06T00:46:24.150Z,0.90
2022-08-06T00:48:53.944Z,1.17
2022-08-06T00:51:23.086Z,0.70
2022-08-06T00:53:57.641Z,1.05
2022-08-06T00:56:27.126Z,1.00
2022-08-06T00:59:03.256Z,0.90
2022-08-06T01:01:32.999Z,1.20
2022-08-06T01:04:17.974Z,0.90
2022-08-06T01:06:56.438Z,0.98
2022-08-06T01:09:27.177Z,0.77
2022-08-06T01:11:59.169Z,0.90
2022-08-06T01:14:39.047Z,1.00
2022-08-06T01:17:19.372Z,0.90
2022-08-06T01:22:01.182Z,0.90
2022-08-06T01:23:05.808Z,0.95
2022-08-06T01:26:02.101Z,1.02
2022-08-06T01:28:51.810Z,0.70
2022-08-06T01:31:30.005Z,1.00
2022-08-06T01:34:08.370Z,0.73
2022-08-06T01:36:48.467Z,1.17
2022-08-06T01:39:21.625Z,1.13
2022-08-06T01:42:09.285Z,1.08
2022-08-06T01:44:45.028Z,0.90
2022-08-06T01:47:17.924Z,0.70
2022-08-06T01:50:01.306Z,0.98
2022-08-06T01:52:40.574Z,0.90
2022-08-06T01:55:13.971Z,0.80
2022-08-06T01:58:07.419Z,1.10
2022-08-06T02:00:46.593Z,1.10
2022-08-06T02:03:49.493Z,1.40
2022-08-06T02:06:22.960Z,1.27
2022-08-06T02:08:59.484Z,0.85
2022-08-06T02:12:02.851Z,0.90
2022-08-06T02:14:41.750Z,1.23
2022-08-06T02:17:14.823Z,0.98
2022-08-06T02:20:05.041Z,1.00
2022-08-06T02:22:37.910Z,0.90
2022-08-06T02:25:15.134Z,0.80
2022-08-06T02:27:59.591Z,1.30
2022-08-06T02:30:36.589Z,1.02
2022-08-06T02:33:08.507Z,1.02
2022-08-06T02:35:43.608Z,1.20
2022-08-06T02:38:32.179Z,1.20
2022-08-06T02:41:38.353Z,0.85
2022-08-06T02:44:22.103Z,1.10
2022-08-06T02:47:03.286Z,0.90
2022-08-06T02:49:34.496Z,1.42
2022-08-06T02:52:32.389Z,1.13
2022-08-06T02:55:11.062Z,1.13
2022-08-06T02:57:53.546Z,0.93
2022-08-06T03:00:29.783Z,1.00
2022-08-06T03:03:01.041Z,1.10
2022-08-06T03:05:54.626Z,0.90
2022-08-06T03:08:19.990Z,0.93
2022-08-06T03:10:51.700Z,1.20
2022-08-06T03:13:21.117Z,1.27
2022-08-06T03:16:00.004Z,1.00
2022-08-06T03:18:29.619Z,1.75
2022-08-06T03:20:58.752Z,0.98
2022-08-06T03:23:27.614Z,1.05
2022-08-06T03:25:55.314Z,1.15
2022-08-06T03:28:23.882Z,1.30
2022-08-06T03:30:55.371Z,1.20
2022-08-06T03:33:41.951Z,1.05
2022-08-06T03:36:12.626Z,1.05
2022-08-06T03:38:54.356Z,1.55
2022-08-06T03:41:28.919Z,1.10
2022-08-06T03:44:04.061Z,1.40
2022-08-06T03:46:38.417Z,1.30
2022-08-06T03:49:13.086Z,1.38
2022-08-06T03:51:52.456Z,1.30
2022-08-06T03:54:28.314Z,1.00
2022-08-06T03:57:08.199Z,1.30
2022-08-06T03:59:43.554Z,1.25
2022-08-06T04:02:36.929Z,1.35
2022-08-06T04:05:34.390Z,1.50
2022-08-06T04:08:07.331Z,1.23
2022-08-06T04:10:39.890Z,1.10
2022-08-06T04:13:40.543Z,1.20
2022-08-06T04:16:14.807Z,1.30
2022-08-06T04:18:44.185Z,1.10
2022-08-06T04:22:56.756Z,1.50
2022-08-06T04:24:10.343Z,1.30
2022-08-06T04:26:40.536Z,1.20
2022-08-06T04:29:10.794Z,1.30
2022-08-06T04:32:13.184Z,1.35
2022-08-06T04:34:30.046Z,1.30
2022-08-06T04:37:01.539Z,1.50
2022-08-06T04:39:38.388Z,1.30
2022-08-06T04:42:18.043Z,1.20
2022-08-06T04:44:46.087Z,1.40
2022-08-06T04:47:25.111Z,1.58
2022-08-06T04:50:09.769Z,1.50
2022-08-06T04:52:48.091Z,1.30
2022-08-06T04:55:24.834Z,1.40
2022-08-06T04:57:57.205Z,1.58
2022-08-06T05:00:59.825Z,1.45
2022-08-06T05:04:07.793Z,1.30
2022-08-06T05:06:34.583Z,1.65
2022-08-06T05:09:20.697Z,1.52
2022-08-06T05:12:04.325Z,1.30
2022-08-06T05:14:46.416Z,1.50
2022-08-06T05:17:16.830Z,1.40
2022-08-06T05:19:47.842Z,1.30
2022-08-06T05:22:42.604Z,1.20
2022-08-06T05:25:13.105Z,1.30
2022-08-06T05:28:04.121Z,1.50
2022-08-06T05:30:34.270Z,2.03
2022-08-06T05:33:04.936Z,1.50
2022-08-06T05:35:41.366Z,1.35
2022-08-06T05:38:11.081Z,1.60
2022-08-06T05:40:53.218Z,1.17
2022-08-06T05:43:25.691Z,0.90
2022-08-06T05:45:57.951Z,1.15
2022-08-06T05:48:29.321Z,1.17
2022-08-06T05:51:43.611Z,1.88
2022-08-06T05:54:21.876Z,1.70
2022-08-06T05:56:53.850Z,1.42
2022-08-06T05:59:38.387Z,1.40
2022-08-06T06:02:15.866Z,1.30
2022-08-06T06:04:46.705Z,1.48
2022-08-06T06:08:09.849Z,1.40
2022-08-06T06:10:18.527Z,1.40
2022-08-06T06:12:46.869Z,1.20
2022-08-06T06:16:00.664Z,1.20
2022-08-06T06:18:34.107Z,1.40
2022-08-06T06:21:18.451Z,1.30
2022-08-06T06:23:58.475Z,1.33
2022-08-06T06:26:38.652Z,1.10
2022-08-06T06:29:15.203Z,1.30
2022-08-06T06:32:08.269Z,1.27
2022-08-06T06:35:17.578Z,1.60
2022-08-06T06:38:12.980Z,1.48
2022-08-06T06:41:19.959Z,1.45
2022-08-06T06:44:03.758Z,1.25
2022-08-06T06:46:40.485Z,1.50
2022-08-06T06:49:59.786Z,1.45
2022-08-06T06:52:09.729Z,1.58
2022-08-06T06:54:43.121Z,1.20
2022-08-06T06:57:23.408Z,0.80
2022-08-06T07:00:01.532Z,0.82
2022-08-06T07:02:42.778Z,1.20
2022-08-06T07:05:14.307Z,1.45
2022-08-06T07:07:49.943Z,1.00
2022-08-06T07:10:18.744Z,1.00
2022-08-06T07:12:50.947Z,0.88
2022-08-06T07:15:24.147Z,0.70
2022-08-06T07:17:53.868Z,0.70
2022-08-06T07:20:30.066Z,0.73
2022-08-06T07:24:06.301Z,1.00
2022-08-06T07:25:55.639Z,1.23
2022-08-06T07:28:28.307Z,0.82
2022-08-06T07:31:04.747Z,0.93
2022-08-06T07:34:00.146Z,1.20
2022-08-06T07:36:31.432Z,1.08
2022-08-06T07:39:09.651Z,1.05
2022-08-06T07:42:06.849Z,1.05
2022-08-06T07:44:55.876Z,1.13
2022-08-06T07:47:41.371Z,0.90
2022-08-06T07:50:18.480Z,1.15
2022-08-06T07:52:54.746Z,1.10
2022-08-06T07:55:31.509Z,1.02
2022-08-06T07:58:08.428Z,1.45
2022-08-06T08:00:38.848Z,0.80
2022-08-06T08:03:56.110Z,0.73
2022-08-06T08:06:25.271Z,1.15
2022-08-06T08:09:05.051Z,0.93
2022-08-06T08:11:38.340Z,0.70
2022-08-06T08:14:22.363Z,0.80
2022-08-06T08:16:51.125Z,0.65
2022-08-06T08:19:35.815Z,0.70
2022-08-06T08:22:17.203Z,0.80
2022-08-06T08:24:53.912Z,0.60
2022-08-06T08:27:37.171Z,0.68
2022-08-06T08:30:05.392Z,0.65
2022-08-06T08:32:32.559Z,0.90
2022-08-06T08:35:00.979Z,0.90
2022-08-06T08:37:31.873Z,0.80
2022-08-06T08:40:00.307Z,0.90
2022-08-06T08:42:45.424Z,1.00
2022-08-06T08:45:16.989Z,0.80
2022-08-06T08:47:54.032Z,1.25
2022-08-06T08:50:35.507Z,0.70
2022-08-06T08:53:13.065Z,0.80
2022-08-06T08:57:11.133Z,1.25
2022-08-06T08:58:41.773Z,0.82
2022-08-06T09:01:51.255Z,1.27
2022-08-06T09:04:02.488Z,0.80
2022-08-06T09:06:32.751Z,0.85
2022-08-06T09:09:06.298Z,0.77
2022-08-06T09:12:05.125Z,0.80
2022-08-06T09:14:33.287Z,1.00
2022-08-06T09:17:02.956Z,0.65
2022-08-06T09:19:38.008Z,0.70
2022-08-06T09:22:09.283Z,0.63
2022-08-06T09:24:39.406Z,0.77
2022-08-06T09:27:47.110Z,0.55
2022-08-06T09:30:21.552Z,0.82
2022-08-06T09:32:57.659Z,1.23
2022-08-06T09:35:44.688Z,0.70
2022-08-06T09:38:16.192Z,1.02
2022-08-06T09:41:15.389Z,0.60
2022-08-06T09:44:03.880Z,0.70
2022-08-06T09:46:49.004Z,0.73
2022-08-06T09:49:47.734Z,1.00
2022-08-06T09:52:20.029Z,0.77
2022-08-06T09:54:53.501Z,0.70
2022-08-06T09:57:26.590Z,0.77
2022-08-06T10:00:14.698Z,0.60
2022-08-06T10:02:51.535Z,0.70
2022-08-06T10:05:20.557Z,0.80
2022-08-06T10:07:52.587Z,0.88
2022-08-06T10:10:40.553Z,1.02
2022-08-06T10:13:19.499Z,0.88
2022-08-06T10:16:01.243Z,0.88
2022-08-06T10:18:56.164Z,1.05
2022-08-06T10:21:41.101Z,1.50
2022-08-06T10:26:38.137Z,1.30
2022-08-06T10:29:11.777Z,1.20
2022-08-06T10:31:42.592Z,1.33
2022-08-06T10:34:12.512Z,1.60
2022-08-06T10:36:48.990Z,2.10
2022-08-06T10:40:09.642Z,2.30
2022-08-06T10:42:16.340Z,2.50
2022-08-06T10:44:46.305Z,2.45
2022-08-06T10:47:18.312Z,2.65
2022-08-06T10:50:24.590Z,2.38
2022-08-06T10:52:51.073Z,3.22
2022-08-06T10:55:18.360Z,3.03
2022-08-06T10:57:45.749Z,3.10
2022-08-06T11:00:13.181Z,2.70
2022-08-06T11:03:13.660Z,2.60
2022-08-06T11:06:09.829Z,2.90
2022-08-06T11:09:15.970Z,2.95
2022-08-06T11:14:38.495Z,2.63
2022-08-06T11:17:11.211Z,2.85
2022-08-06T11:19:57.347Z,2.83
2022-08-06T11:22:52.204Z,2.65
2022-08-06T11:25:37.426Z,2.95
2022-08-06T11:28:08.308Z,3.83
2022-08-06T11:30:53.108Z,2.95
2022-08-06T11:33:35.380Z,2.90
2022-08-06T11:36:02.411Z,3.00
2022-08-06T11:38:53.401Z,2.85
2022-08-06T11:41:55.145Z,2.25
2022-08-06T11:44:21.356Z,2.92
2022-08-06T11:47:22.963Z,3.03
2022-08-06T11:50:04.620Z,3.00
2022-08-06T11:52:41.533Z,2.83
2022-08-06T11:55:12.929Z,2.53
2022-08-06T11:58:13.544Z,3.47
2022-08-06T12:01:03.032Z,3.55
2022-08-06T12:03:43.879Z,3.75
2022-08-06T12:06:26.673Z,3.28
2022-08-06T12:09:23.209Z,3.65
2022-08-06T12:12:26.746Z,3.05
2022-08-06T12:14:56.177Z,3.50
2022-08-06T12:17:44.747Z,3.40
2022-08-06T12:20:13.299Z,3.00
2022-08-06T12:23:01.057Z,3.30
2022-08-06T12:25:32.863Z,3.03
2022-08-06T12:28:03.765Z,2.95
2022-08-06T12:30:45.753Z,3.78
2022-08-06T12:33:17.827Z,3.40
2022-08-06T12:35:59.317Z,4.22
2022-08-06T12:38:30.840Z,3.70
2022-08-06T12:41:09.648Z,3.17
2022-08-06T12:43:56.516Z,3.75
2022-08-06T12:46:29.671Z,3.25
2022-08-06T12:49:01.535Z,3.13
2022-08-06T12:51:30.764Z,3.30
2022-08-06T12:54:08.320Z,2.92
2022-08-06T12:56:39.600Z,3.33
2022-08-06T12:59:22.740Z,3.95
2022-08-06T13:02:08.978Z,3.55
2022-08-06T13:04:45.601Z,3.58
2022-08-06T13:07:20.473Z,3.60
2022-08-06T13:10:33.460Z,3.38
2022-08-06T13:14:02.440Z,3.40
2022-08-06T13:15:25.058Z,3.17
2022-08-06T13:18:13.404Z,3.83
2022-08-06T13:20:57.152Z,3.67
2022-08-06T13:23:37.845Z,3.30
2022-08-06T13:26:28.309Z,3.45
2022-08-06T13:30:34.940Z,3.53
2022-08-06T13:32:19.992Z,3.50
2022-08-06T13:34:57.434Z,3.28
2022-08-06T13:37:57.779Z,3.58
2022-08-06T13:40:57.590Z,3.88
2022-08-06T13:43:54.022Z,3.65
2022-08-06T13:46:28.829Z,4.25
2022-08-06T13:49:02.440Z,3.92
2022-08-06T13:51:35.142Z,3.60
2022-08-06T13:54:15.992Z,3.80
2022-08-06T13:56:51.877Z,4.47
2022-08-06T13:59:39.699Z,4.00
2022-08-06T14:02:09.266Z,3.47
2022-08-06T14:04:39.374Z,3.55
2022-08-06T14:07:08.293Z,4.10
2022-08-06T14:09:58.064Z,3.80
2022-08-06T14:12:26.489Z,3.90
2022-08-06T14:17:34.257Z,3.90
2022-08-06T14:20:16.686Z,4.15
2022-08-06T14:22:48.265Z,3.50
2022-08-06T14:25:16.798Z,4.38
2022-08-06T14:27:44.731Z,4.07
2022-08-06T14:30:26.365Z,4.38
2022-08-06T14:33:00.500Z,3.95
2022-08-06T14:35:40.084Z,4.07
2022-08-06T14:38:17.809Z,3.97
2022-08-06T14:41:03.852Z,4.05
2022-08-06T14:43:55.268Z,4.22
2022-08-06T14:46:26.911Z,3.65
2022-08-06T14:48:58.053Z,4.00
2022-08-06T14:51:37.709Z,3.80
2022-08-06T14:54:15.357Z,3.83
2022-08-06T14:56:45.485Z,3.88
2022-08-06T14:59:22.320Z,3.78
2022-08-06T15:01:51.278Z,3.33
2022-08-06T15:04:24.605Z,3.28
2022-08-06T15:06:58.787Z,3.90
2022-08-06T15:10:04.628Z,3.80
2022-08-06T15:12:34.471Z,4.43
2022-08-06T15:15:05.166Z,4.20
2022-08-06T15:18:05.251Z,4.20
2022-08-06T15:20:25.376Z,4.45
2022-08-06T15:22:54.019Z,4.10
2022-08-06T15:25:44.810Z,4.35
2022-08-06T15:28:11.504Z,3.40
2022-08-06T15:30:39.371Z,4.18
2022-08-06T15:33:11.218Z,3.65
2022-08-06T15:35:56.855Z,3.58
2022-08-06T15:38:27.510Z,4.00
2022-08-06T15:40:56.118Z,3.80
2022-08-06T15:43:25.423Z,4.15
2022-08-06T15:45:58.198Z,4.13
2022-08-06T15:48:28.184Z,4.13
2022-08-06T15:51:27.026Z,3.80
2022-08-06T15:53:56.677Z,4.32
2022-08-06T15:56:33.718Z,4.30
2022-08-06T15:59:11.843Z,3.97
2022-08-06T16:01:59.466Z,5.00
2022-08-06T16:04:35.434Z,4.30
2022-08-06T16:07:05.688Z,4.57
2022-08-06T16:10:00.474Z,4.25
2022-08-06T16:12:24.768Z,4.60
2022-08-06T16:14:57.268Z,4.53
2022-08-06T16:17:52.966Z,4.60
2022-08-06T16:20:20.808Z,4.50
2022-08-06T16:22:52.591Z,4.28
2022-08-06T16:25:21.977Z,4.97
2022-08-06T16:27:51.937Z,5.35
2022-08-06T16:30:20.457Z,4.72
2022-08-06T16:32:49.164Z,4.78
2022-08-06T16:35:21.698Z,4.47
2022-08-06T16:37:52.735Z,4.77
2022-08-06T16:40:22.072Z,4.93
2022-08-06T16:42:53.691Z,4.78
2022-08-06T16:45:23.078Z,4.93
2022-08-06T16:48:21.030Z,4.90
2022-08-06T16:50:42.363Z,5.72
2022-08-06T16:54:08.843Z,5.45
2022-08-06T16:55:58.013Z,5.60
2022-08-06T16:58:33.214Z,6.10
2022-08-06T17:02:14.780Z,5.47
2022-08-06T17:03:59.125Z,5.28
2022-08-06T17:06:30.205Z,5.90
2022-08-06T17:11:58.700Z,6.15
2022-08-06T17:14:31.911Z,5.60
2022-08-06T17:17:04.495Z,6.15
2022-08-06T17:19:37.197Z,5.90
2022-08-06T17:22:06.380Z,6.00
2022-08-06T17:24:37.952Z,5.55
2022-08-06T17:27:44.374Z,5.78
2022-08-06T17:30:14.653Z,5.53
2022-08-06T17:32:46.190Z,6.22
2022-08-06T17:35:16.018Z,6.28
2022-08-06T17:37:45.967Z,6.45
2022-08-06T17:40:18.701Z,5.90
2022-08-06T17:42:48.936Z,6.30
2022-08-06T17:45:16.831Z,5.47
2022-08-06T17:47:51.930Z,6.32
2022-08-06T17:50:20.624Z,5.97
2022-08-06T17:52:48.120Z,6.43
2022-08-06T17:55:17.265Z,6.65
2022-08-06T17:58:32.392Z,6.43
2022-08-06T18:00:37.245Z,12.40
2022-08-06T18:03:23.875Z,8.63
2022-08-06T18:06:02.301Z,7.47
2022-08-06T18:08:35.954Z,5.75
2022-08-06T18:11:04.940Z,6.18
2022-08-06T18:13:52.710Z,5.97
2022-08-06T18:16:27.868Z,6.18
2022-08-06T18:18:58.198Z,5.85
2022-08-06T18:21:25.974Z,5.57
2022-08-06T18:23:56.081Z,6.13
2022-08-06T18:26:30.872Z,5.88
2022-08-06T18:29:04.081Z,6.20
2022-08-06T18:31:59.822Z,6.10
2022-08-06T18:34:29.442Z,6.22
2022-08-06T18:37:20.041Z,6.20
2022-08-06T18:40:19.891Z,6.43
2022-08-06T18:42:34.228Z,5.85
2022-08-06T18:45:03.248Z,6.00
2022-08-06T18:47:33.384Z,5.68
2022-08-06T18:50:01.351Z,5.65
2022-08-06T18:52:33.739Z,5.30
2022-08-06T18:55:03.775Z,5.47
2022-08-06T18:58:04.683Z,5.70
2022-08-06T19:00:23.906Z,6.03
2022-08-06T19:03:00.938Z,6.18
2022-08-06T19:05:29.499Z,5.47
2022-08-06T19:07:58.519Z,6.82
2022-08-06T19:10:28.059Z,5.90
2022-08-06T19:12:58.462Z,6.18
2022-08-06T19:15:45.947Z,6.07
2022-08-06T19:18:17.980Z,5.85
2022-08-06T19:20:46.821Z,6.03
2022-08-06T19:23:21.665Z,5.43
2022-08-06T19:26:12.401Z,5.90
2022-08-06T19:28:49.793Z,5.50
2022-08-06T19:31:41.539Z,6.00
2022-08-06T19:34:14.563Z,5.88
2022-08-06T19:36:45.787Z,6.10
2022-08-06T19:39:53.571Z,5.70
2022-08-06T19:42:31.645Z,5.75
2022-08-06T19:45:04.342Z,5.85
2022-08-06T19:47:47.423Z,5.82
2022-08-06T19:50:16.407Z,6.63
2022-08-06T19:52:46.983Z,6.25
2022-08-06T19:56:08.215Z,5.72
2022-08-06T19:58:20.004Z,6.18
2022-08-06T20:01:06.149Z,6.30
2022-08-06T20:03:52.455Z,6.68
2022-08-06T20:06:40.176Z,6.55
2022-08-06T20:09:08.277Z,6.57
2022-08-06T20:12:02.935Z,6.57
2022-08-06T20:14:33.338Z,6.07
2022-08-06T20:17:01.499Z,6.28
2022-08-06T20:20:07.491Z,8.95
2022-08-06T20:22:19.387Z,10.82
2022-08-06T20:24:47.954Z,7.25
2022-08-06T20:27:20.229Z,7.07
2022-08-06T20:30:09.659Z,6.30
2022-08-06T20:32:38.929Z,5.90
2022-08-06T20:35:10.458Z,6.30
2022-08-06T20:37:44.505Z,6.45
2022-08-06T20:40:20.655Z,6.38
2022-08-06T20:43:02.174Z,7.45
2022-08-06T20:45:57.165Z,6.30
2022-08-06T20:48:21.198Z,7.13
2022-08-06T20:50:48.725Z,6.72
2022-08-06T20:53:16.669Z,6.38
2022-08-06T20:55:49.453Z,6.55
2022-08-06T20:58:16.605Z,6.32
2022-08-06T21:00:43.812Z,6.43
2022-08-06T21:05:10.178Z,6.43
2022-08-06T21:05:58.676Z,6.68
2022-08-06T21:08:29.915Z,6.47
2022-08-06T21:10:58.235Z,6.28
2022-08-06T21:13:35.937Z,6.57
2022-08-06T21:16:13.398Z,6.90
2022-08-06T21:18:44.881Z,11.73
2022-08-06T21:21:12.140Z,8.57
2022-08-06T21:23:56.145Z,6.90
2022-08-06T21:26:34.647Z,6.70
2022-08-06T21:30:07.659Z,6.32
2022-08-06T21:31:53.672Z,6.30
2022-08-06T21:34:21.427Z,6.55
2022-08-06T21:36:49.970Z,6.40
2022-08-06T21:39:17.273Z,6.82
2022-08-06T21:41:54.724Z,6.18
2022-08-06T21:44:27.949Z,6.45
2022-08-06T21:47:00.657Z,6.07
2022-08-06T21:49:59.533Z,6.15
2022-08-06T21:52:27.656Z,6.20
2022-08-06T21:56:35.219Z,6.05
2022-08-06T21:58:02.409Z,6.22
2022-08-06T22:00:37.828Z,6.45
2022-08-06T22:04:35.179Z,6.63
2022-08-06T22:06:22.738Z,5.82
2022-08-06T22:08:51.941Z,6.47
2022-08-06T22:12:39.303Z,6.55
2022-08-06T22:14:15.876Z,6.50
2022-08-06T22:16:48.583Z,5.88
2022-08-06T22:19:21.394Z,5.60
2022-08-06T22:22:04.397Z,6.25
2022-08-06T22:24:36.265Z,6.03
2022-08-06T22:27:06.139Z,6.28
2022-08-06T22:29:53.322Z,6.03
2022-08-06T22:32:20.606Z,5.97
2022-08-06T22:34:51.573Z,5.70
2022-08-06T22:37:19.178Z,5.65
2022-08-06T22:40:08.744Z,5.57
2022-08-06T22:42:58.594Z,6.00
2022-08-06T22:46:00.655Z,6.18
2022-08-06T22:48:13.543Z,5.72
2022-08-06T22:50:41.308Z,6.03
2022-08-06T22:54:28.482Z,5.95
2022-08-06T22:56:01.144Z,5.40
2022-08-06T22:59:03.447Z,6.13
2022-08-06T23:02:03.678Z,5.60
2022-08-06T23:04:02.899Z,5.57
2022-08-06T23:06:30.886Z,5.03
2022-08-06T23:09:00.222Z,5.50
2022-08-06T23:11:28.278Z,6.00
2022-08-06T23:13:55.782Z,5.50
2022-08-06T23:16:27.881Z,5.97
2022-08-06T23:18:56.774Z,6.07
2022-08-06T23:21:56.385Z,5.60
2022-08-06T23:24:19.273Z,5.53
2022-08-06T23:27:01.543Z,5.43
2022-08-06T23:29:29.473Z,6.47
2022-08-06T23:32:02.811Z,5.10
2022-08-06T23:34:34.078Z,6.05
2022-08-06T23:37:10.890Z,5.97
2022-08-06T23:39:38.962Z,5.35
2022-08-06T23:42:08.603Z,5.57
2022-08-06T23:44:42.715Z,6.13
2022-08-06T23:47:53.433Z,5.55
2022-08-06T23:50:03.521Z,5.97
2022-08-06T23:52:30.671Z,8.23
2022-08-06T23:54:59.636Z,8.52
2022-08-06T23:57:47.925Z,6.82
